sensor_id;sensor_type;location;lat;lon;timestamp;temperature;humidity
35313;DHT22;21425;50.454;30.466;2022-10-16T00:02:16;4.50;99.90
35313;DHT22;21425;50.454;30.466;2022-10-16T00:04:41;4.30;99.90
35313;DHT22;21425;50.454;30.466;2022-10-16T00:07:07;4.70;99.90
35313;DHT22;21425;50.454;30.466;2022-10-16T00:09:32;5.70;99.90
35313;DHT22;21425;50.454;30.466;2022-10-16T00:11:58;5.50;99.90
35313;DHT22;21425;50.454;30.466;2022-10-16T00:14:23;5.70;99.90
35313;DHT22;21425;50.454;30.466;2022-10-16T00:16:49;4.40;99.90
35313;DHT22;21425;50.454;30.466;2022-10-16T00:19:14;4.40;99.90
35313;DHT22;21425;50.454;30.466;2022-10-16T00:21:41;4.20;99.90
35313;DHT22;21425;50.454;30.466;2022-10-16T00:24:09;4.40;99.90
35313;DHT22;21425;50.454;30.466;2022-10-16T00:26:36;4.10;99.90
35313;DHT22;21425;50.454;30.466;2022-10-16T00:29:02;3.60;99.90
35313;DHT22;21425;50.454;30.466;2022-10-16T00:31:28;4.10;99.90
35313;DHT22;21425;50.454;30.466;2022-10-16T00:33:55;4.20;99.90
35313;DHT22;21425;50.454;30.466;2022-10-16T00:36:22;4.20;99.90
35313;DHT22;21425;50.454;30.466;2022-10-16T00:38:53;4.20;99.90
35313;DHT22;21425;50.454;30.466;2022-10-16T00:41:21;4.20;99.90
35313;DHT22;21425;50.454;30.466;2022-10-16T00:43:49;4.30;99.90
35313;DHT22;21425;50.454;30.466;2022-10-16T00:46:31;5.80;99.90
35313;DHT22;21425;50.454;30.466;2022-10-16T00:49:10;4.30;99.90
35313;DHT22;21425;50.454;30.466;2022-10-16T00:54:13;4.30;99.90
35313;DHT22;21425;50.454;30.466;2022-10-16T00:56:40;4.20;99.90
35313;DHT22;21425;50.454;30.466;2022-10-16T00:59:16;4.20;99.90
35313;DHT22;21425;50.454;30.466;2022-10-16T01:01:41;4.30;99.90
35313;DHT22;21425;50.454;30.466;2022-10-16T01:04:07;4.20;99.90
35313;DHT22;21425;50.454;30.466;2022-10-16T01:06:42;4.20;99.90
35313;DHT22;21425;50.454;30.466;2022-10-16T01:09:20;4.10;99.90
35313;DHT22;21425;50.454;30.466;2022-10-16T01:12:10;4.00;99.90
35313;DHT22;21425;50.454;30.466;2022-10-16T01:14:54;4.00;99.90
35313;DHT22;21425;50.454;30.466;2022-10-16T01:17:30;4.20;99.90
35313;DHT22;21425;50.454;30.466;2022-10-16T01:20:16;4.20;99.90
35313;DHT22;21425;50.454;30.466;2022-10-16T01:23:07;4.30;99.90
35313;DHT22;21425;50.454;30.466;2022-10-16T01:25:42;4.20;99.90
35313;DHT22;21425;50.454;30.466;2022-10-16T01:28:13;4.30;99.90
35313;DHT22;21425;50.454;30.466;2022-10-16T01:30:42;4.10;99.90
35313;DHT22;21425;50.454;30.466;2022-10-16T01:33:19;4.00;99.90
35313;DHT22;21425;50.454;30.466;2022-10-16T01:35:54;4.00;99.90
35313;DHT22;21425;50.454;30.466;2022-10-16T01:38:40;4.10;99.90
35313;DHT22;21425;50.454;30.466;2022-10-16T01:41:10;4.00;99.90
35313;DHT22;21425;50.454;30.466;2022-10-16T01:43:45;4.10;99.90
35313;DHT22;21425;50.454;30.466;2022-10-16T01:46:11;4.00;99.90
35313;DHT22;21425;50.454;30.466;2022-10-16T01:48:38;4.30;99.90
35313;DHT22;21425;50.454;30.466;2022-10-16T01:51:11;4.00;99.90
35313;DHT22;21425;50.454;30.466;2022-10-16T01:53:39;4.70;99.90
35313;DHT22;21425;50.454;30.466;2022-10-16T01:56:09;4.40;99.90
35313;DHT22;21425;50.454;30.466;2022-10-16T01:58:40;4.10;99.90
35313;DHT22;21425;50.454;30.466;2022-10-16T02:01:09;4.00;99.90
35313;DHT22;21425;50.454;30.466;2022-10-16T02:03:38;3.20;99.90
35313;DHT22;21425;50.454;30.466;2022-10-16T02:06:06;4.70;99.90
35313;DHT22;21425;50.454;30.466;2022-10-16T02:08:32;4.10;99.90
35313;DHT22;21425;50.454;30.466;2022-10-16T02:11:00;4.00;99.90
35313;DHT22;21425;50.454;30.466;2022-10-16T02:13:39;4.00;99.90
35313;DHT22;21425;50.454;30.466;2022-10-16T02:16:08;4.00;99.90
35313;DHT22;21425;50.454;30.466;2022-10-16T02:18:34;3.90;99.90
35313;DHT22;21425;50.454;30.466;2022-10-16T02:23:48;3.90;99.90
35313;DHT22;21425;50.454;30.466;2022-10-16T02:26:30;2.90;99.90
35313;DHT22;21425;50.454;30.466;2022-10-16T02:29:01;4.00;99.90
35313;DHT22;21425;50.454;30.466;2022-10-16T02:31:32;3.90;99.90
35313;DHT22;21425;50.454;30.466;2022-10-16T02:34:01;3.90;99.90
35313;DHT22;21425;50.454;30.466;2022-10-16T02:36:28;4.00;99.90
35313;DHT22;21425;50.454;30.466;2022-10-16T02:38:55;4.70;99.90
35313;DHT22;21425;50.454;30.466;2022-10-16T02:41:22;3.90;99.90
35313;DHT22;21425;50.454;30.466;2022-10-16T02:43:48;3.80;99.90
35313;DHT22;21425;50.454;30.466;2022-10-16T02:46:15;3.80;99.90
35313;DHT22;21425;50.454;30.466;2022-10-16T02:51:06;3.80;99.90
35313;DHT22;21425;50.454;30.466;2022-10-16T02:53:32;2.90;99.90
35313;DHT22;21425;50.454;30.466;2022-10-16T02:55:57;4.00;99.90
35313;DHT22;21425;50.454;30.466;2022-10-16T02:58:23;3.90;99.90
35313;DHT22;21425;50.454;30.466;2022-10-16T03:00:48;3.90;99.90
35313;DHT22;21425;50.454;30.466;2022-10-16T03:03:14;4.00;99.90
35313;DHT22;21425;50.454;30.466;2022-10-16T03:05:39;4.40;99.90
35313;DHT22;21425;50.454;30.466;2022-10-16T03:08:05;4.00;99.90
35313;DHT22;21425;50.454;30.466;2022-10-16T03:10:31;4.00;99.90
35313;DHT22;21425;50.454;30.466;2022-10-16T03:12:56;3.90;99.90
35313;DHT22;21425;50.454;30.466;2022-10-16T03:15:22;4.10;99.90
35313;DHT22;21425;50.454;30.466;2022-10-16T03:17:47;4.20;99.90
35313;DHT22;21425;50.454;30.466;2022-10-16T03:20:13;3.80;99.90
35313;DHT22;21425;50.454;30.466;2022-10-16T03:22:39;3.80;99.90
35313;DHT22;21425;50.454;30.466;2022-10-16T03:25:04;3.80;99.90
35313;DHT22;21425;50.454;30.466;2022-10-16T03:27:30;4.90;99.90
35313;DHT22;21425;50.454;30.466;2022-10-16T03:29:56;3.80;99.90
35313;DHT22;21425;50.454;30.466;2022-10-16T03:32:21;3.80;99.90
35313;DHT22;21425;50.454;30.466;2022-10-16T03:34:47;3.80;99.90
35313;DHT22;21425;50.454;30.466;2022-10-16T03:37:13;4.00;99.90
35313;DHT22;21425;50.454;30.466;2022-10-16T03:39:38;3.90;99.90
35313;DHT22;21425;50.454;30.466;2022-10-16T03:42:04;3.90;99.90
35313;DHT22;21425;50.454;30.466;2022-10-16T03:49:21;3.80;99.90
35313;DHT22;21425;50.454;30.466;2022-10-16T03:51:47;3.80;99.90
35313;DHT22;21425;50.454;30.466;2022-10-16T03:54:12;3.90;99.90
35313;DHT22;21425;50.454;30.466;2022-10-16T03:56:38;3.80;99.90
35313;DHT22;21425;50.454;30.466;2022-10-16T03:59:04;7.10;99.90
35313;DHT22;21425;50.454;30.466;2022-10-16T04:01:29;4.00;99.90
35313;DHT22;21425;50.454;30.466;2022-10-16T04:03:55;3.50;99.90
35313;DHT22;21425;50.454;30.466;2022-10-16T04:06:20;3.60;99.90
35313;DHT22;21425;50.454;30.466;2022-10-16T04:08:46;3.60;99.90
35313;DHT22;21425;50.454;30.466;2022-10-16T04:11:12;3.70;99.90
35313;DHT22;21425;50.454;30.466;2022-10-16T04:13:37;3.50;99.90
35313;DHT22;21425;50.454;30.466;2022-10-16T04:16:03;3.40;99.90
35313;DHT22;21425;50.454;30.466;2022-10-16T04:18:29;3.50;99.90
35313;DHT22;21425;50.454;30.466;2022-10-16T04:20:54;4.70;99.90
35313;DHT22;21425;50.454;30.466;2022-10-16T04:23:20;3.80;99.90
35313;DHT22;21425;50.454;30.466;2022-10-16T04:25:48;3.60;99.90
35313;DHT22;21425;50.454;30.466;2022-10-16T04:28:13;3.60;99.90
35313;DHT22;21425;50.454;30.466;2022-10-16T04:30:39;3.60;99.90
35313;DHT22;21425;50.454;30.466;2022-10-16T04:33:05;3.50;99.90
35313;DHT22;21425;50.454;30.466;2022-10-16T04:35:30;2.60;99.90
35313;DHT22;21425;50.454;30.466;2022-10-16T04:37:59;3.70;99.90
35313;DHT22;21425;50.454;30.466;2022-10-16T04:40:24;4.40;99.90
35313;DHT22;21425;50.454;30.466;2022-10-16T04:42:50;3.70;99.90
35313;DHT22;21425;50.454;30.466;2022-10-16T04:45:15;3.70;99.90
35313;DHT22;21425;50.454;30.466;2022-10-16T04:47:41;3.70;99.90
35313;DHT22;21425;50.454;30.466;2022-10-16T04:50:07;3.70;99.90
35313;DHT22;21425;50.454;30.466;2022-10-16T04:52:33;3.60;99.90
35313;DHT22;21425;50.454;30.466;2022-10-16T04:54:58;3.60;99.90
35313;DHT22;21425;50.454;30.466;2022-10-16T04:57:27;3.80;99.90
35313;DHT22;21425;50.454;30.466;2022-10-16T04:59:53;3.90;99.90
35313;DHT22;21425;50.454;30.466;2022-10-16T05:02:19;3.90;99.90
35313;DHT22;21425;50.454;30.466;2022-10-16T05:04:44;3.90;99.90
35313;DHT22;21425;50.454;30.466;2022-10-16T05:07:10;4.00;99.90
35313;DHT22;21425;50.454;30.466;2022-10-16T05:09:35;5.10;99.90
35313;DHT22;21425;50.454;30.466;2022-10-16T05:12:01;4.70;99.90
35313;DHT22;21425;50.454;30.466;2022-10-16T05:14:29;4.10;99.90
35313;DHT22;21425;50.454;30.466;2022-10-16T05:16:54;4.20;99.90
35313;DHT22;21425;50.454;30.466;2022-10-16T05:19:20;4.20;99.90
35313;DHT22;21425;50.454;30.466;2022-10-16T05:21:46;4.40;99.90
35313;DHT22;21425;50.454;30.466;2022-10-16T05:24:11;4.40;99.90
35313;DHT22;21425;50.454;30.466;2022-10-16T05:26:37;4.50;99.90
35313;DHT22;21425;50.454;30.466;2022-10-16T05:29:03;5.10;99.90
35313;DHT22;21425;50.454;30.466;2022-10-16T05:31:29;4.50;99.90
35313;DHT22;21425;50.454;30.466;2022-10-16T05:33:59;4.60;99.90
35313;DHT22;21425;50.454;30.466;2022-10-16T05:36:25;6.90;99.90
35313;DHT22;21425;50.454;30.466;2022-10-16T05:38:51;4.20;99.90
35313;DHT22;21425;50.454;30.466;2022-10-16T05:41:17;4.80;99.90
35313;DHT22;21425;50.454;30.466;2022-10-16T05:43:47;5.00;99.90
35313;DHT22;21425;50.454;30.466;2022-10-16T05:46:12;5.00;99.90
35313;DHT22;21425;50.454;30.466;2022-10-16T05:48:38;5.00;99.90
35313;DHT22;21425;50.454;30.466;2022-10-16T05:51:06;5.30;99.90
35313;DHT22;21425;50.454;30.466;2022-10-16T05:53:36;5.30;99.90
35313;DHT22;21425;50.454;30.466;2022-10-16T05:56:03;6.00;99.90
35313;DHT22;21425;50.454;30.466;2022-10-16T05:58:33;5.40;99.90
35313;DHT22;21425;50.454;30.466;2022-10-16T06:01:05;5.50;99.90
35313;DHT22;21425;50.454;30.466;2022-10-16T06:03:32;5.60;99.90
35313;DHT22;21425;50.454;30.466;2022-10-16T06:05:57;5.60;99.90
35313;DHT22;21425;50.454;30.466;2022-10-16T06:08:23;6.20;99.90
35313;DHT22;21425;50.454;30.466;2022-10-16T06:10:59;5.80;99.90
35313;DHT22;21425;50.454;30.466;2022-10-16T06:13:25;6.00;99.90
35313;DHT22;21425;50.454;30.466;2022-10-16T06:15:51;6.10;99.90
35313;DHT22;21425;50.454;30.466;2022-10-16T06:18:16;6.10;99.90
35313;DHT22;21425;50.454;30.466;2022-10-16T06:20:42;6.40;99.90
35313;DHT22;21425;50.454;30.466;2022-10-16T06:23:07;6.40;99.90
35313;DHT22;21425;50.454;30.466;2022-10-16T06:25:33;6.50;99.90
35313;DHT22;21425;50.454;30.466;2022-10-16T06:27:58;8.10;99.90
35313;DHT22;21425;50.454;30.466;2022-10-16T06:30:24;6.70;99.90
35313;DHT22;21425;50.454;30.466;2022-10-16T06:32:50;6.80;99.90
35313;DHT22;21425;50.454;30.466;2022-10-16T06:37:41;6.90;99.90
35313;DHT22;21425;50.454;30.466;2022-10-16T06:40:07;7.00;99.90
35313;DHT22;21425;50.454;30.466;2022-10-16T06:42:32;7.70;99.90
35313;DHT22;21425;50.454;30.466;2022-10-16T06:44:58;7.20;99.90
35313;DHT22;21425;50.454;30.466;2022-10-16T06:49:50;7.10;99.90
35313;DHT22;21425;50.454;30.466;2022-10-16T06:54:41;6.60;99.90
35313;DHT22;21425;50.454;30.466;2022-10-16T06:59:33;7.40;99.90
35313;DHT22;21425;50.454;30.466;2022-10-16T07:01:58;7.60;99.90
35313;DHT22;21425;50.454;30.466;2022-10-16T07:04:24;6.90;99.90
35313;DHT22;21425;50.454;30.466;2022-10-16T07:06:49;8.40;99.90
35313;DHT22;21425;50.454;30.466;2022-10-16T07:09:16;7.90;99.90
35313;DHT22;21425;50.454;30.466;2022-10-16T07:11:42;8.10;99.90
35313;DHT22;21425;50.454;30.466;2022-10-16T07:14:16;8.10;99.90
35313;DHT22;21425;50.454;30.466;2022-10-16T07:16:42;8.10;99.90
35313;DHT22;21425;50.454;30.466;2022-10-16T07:19:08;9.00;99.90
35313;DHT22;21425;50.454;30.466;2022-10-16T07:21:34;9.10;99.90
35313;DHT22;21425;50.454;30.466;2022-10-16T07:24:05;7.70;99.90
35313;DHT22;21425;50.454;30.466;2022-10-16T07:26:34;9.90;99.90
35313;DHT22;21425;50.454;30.466;2022-10-16T07:29:00;8.50;99.90
35313;DHT22;21425;50.454;30.466;2022-10-16T07:33:52;8.70;99.90
35313;DHT22;21425;50.454;30.466;2022-10-16T07:36:19;10.40;99.90
35313;DHT22;21425;50.454;30.466;2022-10-16T07:38:45;9.60;99.90
35313;DHT22;21425;50.454;30.466;2022-10-16T07:41:14;8.90;99.90
35313;DHT22;21425;50.454;30.466;2022-10-16T07:43:40;8.90;99.90
35313;DHT22;21425;50.454;30.466;2022-10-16T07:46:06;10.10;99.90
35313;DHT22;21425;50.454;30.466;2022-10-16T07:48:33;9.80;99.90
35313;DHT22;21425;50.454;30.466;2022-10-16T07:51:00;10.50;99.90
35313;DHT22;21425;50.454;30.466;2022-10-16T07:53:27;12.20;99.90
35313;DHT22;21425;50.454;30.466;2022-10-16T07:56:00;9.10;99.90
35313;DHT22;21425;50.454;30.466;2022-10-16T07:58:27;9.30;99.90
35313;DHT22;21425;50.454;30.466;2022-10-16T08:00:53;9.70;99.90
35313;DHT22;21425;50.454;30.466;2022-10-16T08:05:45;9.60;99.90
35313;DHT22;21425;50.454;30.466;2022-10-16T08:08:13;9.70;99.90
35313;DHT22;21425;50.454;30.466;2022-10-16T08:10:39;10.80;99.90
35313;DHT22;21425;50.454;30.466;2022-10-16T08:13:05;10.10;99.10
35313;DHT22;21425;50.454;30.466;2022-10-16T08:18:02;10.50;98.20
35313;DHT22;21425;50.454;30.466;2022-10-16T08:20:28;10.80;98.00
35313;DHT22;21425;50.454;30.466;2022-10-16T08:22:54;9.50;97.50
35313;DHT22;21425;50.454;30.466;2022-10-16T08:25:22;10.60;97.80
35313;DHT22;21425;50.454;30.466;2022-10-16T08:27:48;10.70;97.50
35313;DHT22;21425;50.454;30.466;2022-10-16T08:30:15;10.90;96.50
35313;DHT22;21425;50.454;30.466;2022-10-16T08:35:08;10.80;95.00
35313;DHT22;21425;50.454;30.466;2022-10-16T08:37:34;11.60;94.90
35313;DHT22;21425;50.454;30.466;2022-10-16T08:40:00;9.70;94.20
35313;DHT22;21425;50.454;30.466;2022-10-16T08:45:13;10.70;94.00
35313;DHT22;21425;50.454;30.466;2022-10-16T08:47:56;11.60;92.70
35313;DHT22;21425;50.454;30.466;2022-10-16T08:50:26;10.50;92.80
35313;DHT22;21425;50.454;30.466;2022-10-16T08:52:53;7.20;91.10
35313;DHT22;21425;50.454;30.466;2022-10-16T08:55:30;11.00;92.30
35313;DHT22;21425;50.454;30.466;2022-10-16T09:00:24;10.00;92.10
35313;DHT22;21425;50.454;30.466;2022-10-16T09:03:06;9.90;92.10
35313;DHT22;21425;50.454;30.466;2022-10-16T09:09:05;10.70;91.30
35313;DHT22;21425;50.454;30.466;2022-10-16T09:14:07;10.60;91.90
35313;DHT22;21425;50.454;30.466;2022-10-16T09:16:48;10.00;91.70
35313;DHT22;21425;50.454;30.466;2022-10-16T09:19:33;12.50;92.60
35313;DHT22;21425;50.454;30.466;2022-10-16T09:22:10;11.40;90.80
35313;DHT22;21425;50.454;30.466;2022-10-16T09:24:37;10.80;91.20
35313;DHT22;21425;50.454;30.466;2022-10-16T09:27:03;11.30;91.60
35313;DHT22;21425;50.454;30.466;2022-10-16T09:29:29;10.70;90.90
35313;DHT22;21425;50.454;30.466;2022-10-16T09:31:55;11.00;91.40
35313;DHT22;21425;50.454;30.466;2022-10-16T09:36:49;10.50;89.70
35313;DHT22;21425;50.454;30.466;2022-10-16T09:39:15;11.00;89.20
35313;DHT22;21425;50.454;30.466;2022-10-16T09:41:44;11.50;86.70
35313;DHT22;21425;50.454;30.466;2022-10-16T09:44:29;10.80;85.70
35313;DHT22;21425;50.454;30.466;2022-10-16T09:47:15;10.90;85.90
35313;DHT22;21425;50.454;30.466;2022-10-16T09:50:00;11.60;86.30
35313;DHT22;21425;50.454;30.466;2022-10-16T09:52:27;12.50;87.60
35313;DHT22;21425;50.454;30.466;2022-10-16T09:54:58;10.80;87.10
35313;DHT22;21425;50.454;30.466;2022-10-16T09:57:25;10.90;88.20
35313;DHT22;21425;50.454;30.466;2022-10-16T09:59:53;10.00;86.70
35313;DHT22;21425;50.454;30.466;2022-10-16T10:04:55;11.60;90.20
35313;DHT22;21425;50.454;30.466;2022-10-16T10:07:25;10.90;89.80
35313;DHT22;21425;50.454;30.466;2022-10-16T10:09:52;11.70;88.90
35313;DHT22;21425;50.454;30.466;2022-10-16T10:12:26;11.60;88.80
35313;DHT22;21425;50.454;30.466;2022-10-16T10:14:53;11.90;89.80
35313;DHT22;21425;50.454;30.466;2022-10-16T10:17:21;11.80;86.20
35313;DHT22;21425;50.454;30.466;2022-10-16T10:22:27;11.60;88.40
35313;DHT22;21425;50.454;30.466;2022-10-16T10:30:45;11.60;89.40
35313;DHT22;21425;50.454;30.466;2022-10-16T10:33:24;10.80;89.00
35313;DHT22;21425;50.454;30.466;2022-10-16T10:41:35;11.90;84.10
35313;DHT22;21425;50.454;30.466;2022-10-16T10:44:12;11.60;84.30
35313;DHT22;21425;50.454;30.466;2022-10-16T10:46:47;12.20;85.20
35313;DHT22;21425;50.454;30.466;2022-10-16T10:52:07;11.70;84.80
35313;DHT22;21425;50.454;30.466;2022-10-16T11:00:23;11.00;82.90
35313;DHT22;21425;50.454;30.466;2022-10-16T11:03:14;12.80;82.50
35313;DHT22;21425;50.454;30.466;2022-10-16T11:06:23;11.60;80.10
35313;DHT22;21425;50.454;30.466;2022-10-16T11:08:55;13.00;81.00
35313;DHT22;21425;50.454;30.466;2022-10-16T11:11:29;11.60;80.10
35313;DHT22;21425;50.454;30.466;2022-10-16T11:14:20;11.80;79.00
35313;DHT22;21425;50.454;30.466;2022-10-16T11:16:54;10.60;77.20
35313;DHT22;21425;50.454;30.466;2022-10-16T11:19:41;11.60;77.60
35313;DHT22;21425;50.454;30.466;2022-10-16T11:22:17;11.30;76.60
35313;DHT22;21425;50.454;30.466;2022-10-16T11:25:01;12.60;77.30
35313;DHT22;21425;50.454;30.466;2022-10-16T11:27:40;11.70;76.80
35313;DHT22;21425;50.454;30.466;2022-10-16T11:30:33;13.00;76.70
35313;DHT22;21425;50.454;30.466;2022-10-16T11:35:41;10.80;77.50
35313;DHT22;21425;50.454;30.466;2022-10-16T11:38:27;12.40;77.20
35313;DHT22;21425;50.454;30.466;2022-10-16T11:40:56;11.50;75.80
35313;DHT22;21425;50.454;30.466;2022-10-16T11:43:38;11.10;74.90
35313;DHT22;21425;50.454;30.466;2022-10-16T11:46:15;13.10;75.40
35313;DHT22;21425;50.454;30.466;2022-10-16T11:51:38;11.60;73.80
35313;DHT22;21425;50.454;30.466;2022-10-16T11:56:39;12.60;74.20
35313;DHT22;21425;50.454;30.466;2022-10-16T12:01:46;12.90;74.90
35313;DHT22;21425;50.454;30.466;2022-10-16T12:04:27;11.00;74.20
35313;DHT22;21425;50.454;30.466;2022-10-16T12:07:07;11.90;74.60
35313;DHT22;21425;50.454;30.466;2022-10-16T12:09:37;12.90;74.70
35313;DHT22;21425;50.454;30.466;2022-10-16T12:12:04;11.90;74.00
35313;DHT22;21425;50.454;30.466;2022-10-16T12:17:04;12.50;73.60
35313;DHT22;21425;50.454;30.466;2022-10-16T12:20:01;12.50;71.80
35313;DHT22;21425;50.454;30.466;2022-10-16T12:22:29;12.90;70.50
35313;DHT22;21425;50.454;30.466;2022-10-16T12:24:56;14.40;67.30
35313;DHT22;21425;50.454;30.466;2022-10-16T12:27:29;16.50;60.80
35313;DHT22;21425;50.454;30.466;2022-10-16T12:30:00;17.90;56.90
35313;DHT22;21425;50.454;30.466;2022-10-16T12:32:30;16.70;51.40
35313;DHT22;21425;50.454;30.466;2022-10-16T12:34:57;16.50;47.80
35313;DHT22;21425;50.454;30.466;2022-10-16T12:37:26;19.30;46.20
35313;DHT22;21425;50.454;30.466;2022-10-16T12:39:54;19.90;41.70
35313;DHT22;21425;50.454;30.466;2022-10-16T12:44:52;20.00;42.70
35313;DHT22;21425;50.454;30.466;2022-10-16T12:47:36;21.40;36.50
35313;DHT22;21425;50.454;30.466;2022-10-16T12:50:03;21.90;36.90
35313;DHT22;21425;50.454;30.466;2022-10-16T12:52:38;20.70;35.10
35313;DHT22;21425;50.454;30.466;2022-10-16T12:55:09;21.00;35.80
35313;DHT22;21425;50.454;30.466;2022-10-16T13:00:31;21.60;34.60
35313;DHT22;21425;50.454;30.466;2022-10-16T13:03:38;21.70;34.30
35313;DHT22;21425;50.454;30.466;2022-10-16T13:06:19;19.70;35.20
35313;DHT22;21425;50.454;30.466;2022-10-16T13:09:07;20.90;34.80
35313;DHT22;21425;50.454;30.466;2022-10-16T13:19:21;22.60;33.30
35313;DHT22;21425;50.454;30.466;2022-10-16T13:24:53;22.10;31.70
35313;DHT22;21425;50.454;30.466;2022-10-16T13:27:46;22.00;31.10
35313;DHT22;21425;50.454;30.466;2022-10-16T13:30:22;22.30;32.50
35313;DHT22;21425;50.454;30.466;2022-10-16T13:32:51;21.00;32.90
35313;DHT22;21425;50.454;30.466;2022-10-16T13:35:24;20.70;33.80
35313;DHT22;21425;50.454;30.466;2022-10-16T13:37:50;21.40;35.00
35313;DHT22;21425;50.454;30.466;2022-10-16T13:40:22;22.50;33.90
35313;DHT22;21425;50.454;30.466;2022-10-16T13:42:48;21.00;33.90
35313;DHT22;21425;50.454;30.466;2022-10-16T13:45:19;20.70;34.10
35313;DHT22;21425;50.454;30.466;2022-10-16T13:47:44;20.00;34.30
35313;DHT22;21425;50.454;30.466;2022-10-16T13:50:13;19.90;35.00
35313;DHT22;21425;50.454;30.466;2022-10-16T13:55:17;19.00;36.10
35313;DHT22;21425;50.454;30.466;2022-10-16T14:00:23;20.30;35.60
35313;DHT22;21425;50.454;30.466;2022-10-16T14:02:57;20.20;37.70
35313;DHT22;21425;50.454;30.466;2022-10-16T14:05:24;19.70;35.80
35313;DHT22;21425;50.454;30.466;2022-10-16T14:07:51;18.80;36.40
35313;DHT22;21425;50.454;30.466;2022-10-16T14:10:31;17.60;37.10
35313;DHT22;21425;50.454;30.466;2022-10-16T14:13:04;17.40;37.20
35313;DHT22;21425;50.454;30.466;2022-10-16T14:15:31;19.10;38.50
35313;DHT22;21425;50.454;30.466;2022-10-16T14:17:58;18.90;39.20
35313;DHT22;21425;50.454;30.466;2022-10-16T14:20:29;18.20;39.10
35313;DHT22;21425;50.454;30.466;2022-10-16T14:25:45;17.90;39.20
35313;DHT22;21425;50.454;30.466;2022-10-16T14:28:21;17.00;39.50
35313;DHT22;21425;50.454;30.466;2022-10-16T14:36:01;18.40;42.90
35313;DHT22;21425;50.454;30.466;2022-10-16T14:38:28;16.50;43.20
35313;DHT22;21425;50.454;30.466;2022-10-16T14:40:57;17.00;44.20
35313;DHT22;21425;50.454;30.466;2022-10-16T14:43:41;16.10;45.10
35313;DHT22;21425;50.454;30.466;2022-10-16T14:46:17;16.10;47.00
35313;DHT22;21425;50.454;30.466;2022-10-16T14:48:45;15.20;49.30
35313;DHT22;21425;50.454;30.466;2022-10-16T14:51:18;14.20;49.80
35313;DHT22;21425;50.454;30.466;2022-10-16T14:53:45;13.20;53.50
35313;DHT22;21425;50.454;30.466;2022-10-16T14:56:22;11.70;55.20
35313;DHT22;21425;50.454;30.466;2022-10-16T14:58:50;11.30;58.30
35313;DHT22;21425;50.454;30.466;2022-10-16T15:01:16;12.80;60.10
35313;DHT22;21425;50.454;30.466;2022-10-16T15:03:43;11.60;64.30
35313;DHT22;21425;50.454;30.466;2022-10-16T15:06:13;10.70;64.80
35313;DHT22;21425;50.454;30.466;2022-10-16T15:08:39;12.40;68.80
35313;DHT22;21425;50.454;30.466;2022-10-16T15:11:12;10.30;73.80
35313;DHT22;21425;50.454;30.466;2022-10-16T15:13:39;10.90;75.10
35313;DHT22;21425;50.454;30.466;2022-10-16T15:16:07;10.60;82.00
35313;DHT22;21425;50.454;30.466;2022-10-16T15:18:32;9.50;82.70
35313;DHT22;21425;50.454;30.466;2022-10-16T15:20:58;9.30;90.30
35313;DHT22;21425;50.454;30.466;2022-10-16T15:23:23;8.90;90.70
35313;DHT22;21425;50.454;30.466;2022-10-16T15:25:54;8.60;94.30
35313;DHT22;21425;50.454;30.466;2022-10-16T15:28:21;8.60;94.70
35313;DHT22;21425;50.454;30.466;2022-10-16T15:30:49;8.60;95.90
35313;DHT22;21425;50.454;30.466;2022-10-16T15:33:18;8.50;97.00
35313;DHT22;21425;50.454;30.466;2022-10-16T15:35:48;9.70;99.10
35313;DHT22;21425;50.454;30.466;2022-10-16T15:38:15;8.40;99.90
35313;DHT22;21425;50.454;30.466;2022-10-16T15:40:41;9.40;99.90
35313;DHT22;21425;50.454;30.466;2022-10-16T15:43:07;9.10;99.90
35313;DHT22;21425;50.454;30.466;2022-10-16T15:45:34;8.40;99.90
35313;DHT22;21425;50.454;30.466;2022-10-16T15:47:59;8.20;99.90
35313;DHT22;21425;50.454;30.466;2022-10-16T15:50:26;8.40;99.90
35313;DHT22;21425;50.454;30.466;2022-10-16T15:52:51;8.70;99.90
35313;DHT22;21425;50.454;30.466;2022-10-16T15:55:17;7.80;99.90
35313;DHT22;21425;50.454;30.466;2022-10-16T15:57:45;9.10;99.90
35313;DHT22;21425;50.454;30.466;2022-10-16T16:00:13;8.20;99.90
35313;DHT22;21425;50.454;30.466;2022-10-16T16:02:40;8.20;99.90
35313;DHT22;21425;50.454;30.466;2022-10-16T16:05:06;9.20;99.90
35313;DHT22;21425;50.454;30.466;2022-10-16T16:07:38;8.20;99.90
35313;DHT22;21425;50.454;30.466;2022-10-16T16:10:06;7.50;99.90
35313;DHT22;21425;50.454;30.466;2022-10-16T16:12:33;7.90;99.90
35313;DHT22;21425;50.454;30.466;2022-10-16T16:14:58;8.10;99.90
35313;DHT22;21425;50.454;30.466;2022-10-16T16:17:24;8.00;99.90
35313;DHT22;21425;50.454;30.466;2022-10-16T16:19:50;8.00;99.90
35313;DHT22;21425;50.454;30.466;2022-10-16T16:22:15;8.60;99.90
35313;DHT22;21425;50.454;30.466;2022-10-16T16:24:41;8.60;99.90
35313;DHT22;21425;50.454;30.466;2022-10-16T16:27:07;9.50;99.90
35313;DHT22;21425;50.454;30.466;2022-10-16T16:29:33;6.90;99.90
35313;DHT22;21425;50.454;30.466;2022-10-16T16:32:01;7.70;99.90
35313;DHT22;21425;50.454;30.466;2022-10-16T16:34:28;8.60;99.90
35313;DHT22;21425;50.454;30.466;2022-10-16T16:36:55;7.70;99.90
35313;DHT22;21425;50.454;30.466;2022-10-16T16:39:21;7.80;99.90
35313;DHT22;21425;50.454;30.466;2022-10-16T16:41:46;7.90;99.90
35313;DHT22;21425;50.454;30.466;2022-10-16T16:44:13;6.70;99.90
35313;DHT22;21425;50.454;30.466;2022-10-16T16:49:06;7.60;99.90
35313;DHT22;21425;50.454;30.466;2022-10-16T16:51:32;9.00;99.90
35313;DHT22;21425;50.454;30.466;2022-10-16T16:56:25;6.80;99.90
35313;DHT22;21425;50.454;30.466;2022-10-16T16:58:53;7.90;99.90
35313;DHT22;21425;50.454;30.466;2022-10-16T17:01:20;8.80;99.90
35313;DHT22;21425;50.454;30.466;2022-10-16T17:03:46;7.60;99.90
35313;DHT22;21425;50.454;30.466;2022-10-16T17:06:14;7.50;99.90
35313;DHT22;21425;50.454;30.466;2022-10-16T17:08:41;8.10;99.90
35313;DHT22;21425;50.454;30.466;2022-10-16T17:11:15;7.20;99.90
35313;DHT22;21425;50.454;30.466;2022-10-16T17:13:41;7.10;99.90
35313;DHT22;21425;50.454;30.466;2022-10-16T17:16:07;7.20;99.90
35313;DHT22;21425;50.454;30.466;2022-10-16T17:18:33;7.10;99.90
35313;DHT22;21425;50.454;30.466;2022-10-16T17:21:05;8.00;99.90
35313;DHT22;21425;50.454;30.466;2022-10-16T17:23:32;7.00;99.90
35313;DHT22;21425;50.454;30.466;2022-10-16T17:26:07;7.00;99.90
35313;DHT22;21425;50.454;30.466;2022-10-16T17:28:33;6.10;99.90
35313;DHT22;21425;50.454;30.466;2022-10-16T17:31:15;6.80;99.90
35313;DHT22;21425;50.454;30.466;2022-10-16T17:33:42;6.90;99.90
35313;DHT22;21425;50.454;30.466;2022-10-16T17:36:08;9.10;99.90
35313;DHT22;21425;50.454;30.466;2022-10-16T17:38:34;6.70;99.90